sensor_id;sensor_type;location;lat;lon;timestamp;temperature;humidity
48860;DHT22;34679;51.436;-2.518;2023-12-28T00:01:28;11.70;99.90
48860;DHT22;34679;51.436;-2.518;2023-12-28T00:03:54;11.60;99.90
48860;DHT22;34679;51.436;-2.518;2023-12-28T00:06:19;11.60;99.90
48860;DHT22;34679;51.436;-2.518;2023-12-28T00:08:45;11.70;99.90
48860;DHT22;34679;51.436;-2.518;2023-12-28T00:11:11;11.70;99.90
48860;DHT22;34679;51.436;-2.518;2023-12-28T00:13:37;11.80;99.90
48860;DHT22;34679;51.436;-2.518;2023-12-28T00:16:02;11.90;99.90
48860;DHT22;34679;51.436;-2.518;2023-12-28T00:18:28;11.90;99.90
48860;DHT22;34679;51.436;-2.518;2023-12-28T00:20:54;11.90;99.90
48860;DHT22;34679;51.436;-2.518;2023-12-28T00:23:19;11.90;99.90
48860;DHT22;34679;51.436;-2.518;2023-12-28T00:25:48;11.90;99.90
48860;DHT22;34679;51.436;-2.518;2023-12-28T00:28:14;11.90;99.90
48860;DHT22;34679;51.436;-2.518;2023-12-28T00:30:39;11.90;99.90
48860;DHT22;34679;51.436;-2.518;2023-12-28T00:33:05;11.80;99.90
48860;DHT22;34679;51.436;-2.518;2023-12-28T00:35:31;11.90;99.90
48860;DHT22;34679;51.436;-2.518;2023-12-28T00:37:56;11.80;99.90
48860;DHT22;34679;51.436;-2.518;2023-12-28T00:40:22;11.80;99.90
48860;DHT22;34679;51.436;-2.518;2023-12-28T00:42:48;11.90;99.90
48860;DHT22;34679;51.436;-2.518;2023-12-28T00:45:14;11.80;99.90
48860;DHT22;34679;51.436;-2.518;2023-12-28T00:47:39;11.90;99.90
48860;DHT22;34679;51.436;-2.518;2023-12-28T00:50:08;11.90;99.90
48860;DHT22;34679;51.436;-2.518;2023-12-28T00:52:34;11.80;99.90
48860;DHT22;34679;51.436;-2.518;2023-12-28T00:55:00;11.80;99.90
48860;DHT22;34679;51.436;-2.518;2023-12-28T00:57:26;11.80;99.90
48860;DHT22;34679;51.436;-2.518;2023-12-28T00:59:51;11.80;99.90
48860;DHT22;34679;51.436;-2.518;2023-12-28T01:02:17;11.80;99.90
48860;DHT22;34679;51.436;-2.518;2023-12-28T01:04:43;11.80;99.90
48860;DHT22;34679;51.436;-2.518;2023-12-28T01:07:08;11.90;99.90
48860;DHT22;34679;51.436;-2.518;2023-12-28T01:09:34;12.00;99.90
48860;DHT22;34679;51.436;-2.518;2023-12-28T01:11:59;12.00;99.90
48860;DHT22;34679;51.436;-2.518;2023-12-28T01:14:25;12.00;99.90
48860;DHT22;34679;51.436;-2.518;2023-12-28T01:16:51;12.00;99.90
48860;DHT22;34679;51.436;-2.518;2023-12-28T01:19:17;12.10;99.90
48860;DHT22;34679;51.436;-2.518;2023-12-28T01:21:42;12.00;99.90
48860;DHT22;34679;51.436;-2.518;2023-12-28T01:24:08;12.10;99.90
48860;DHT22;34679;51.436;-2.518;2023-12-28T01:26:34;12.00;99.90
48860;DHT22;34679;51.436;-2.518;2023-12-28T01:29:00;11.90;99.90
48860;DHT22;34679;51.436;-2.518;2023-12-28T01:31:28;11.80;99.90
48860;DHT22;34679;51.436;-2.518;2023-12-28T01:33:54;11.70;99.90
48860;DHT22;34679;51.436;-2.518;2023-12-28T01:36:21;11.50;99.90
48860;DHT22;34679;51.436;-2.518;2023-12-28T01:38:47;11.40;99.90
48860;DHT22;34679;51.436;-2.518;2023-12-28T01:41:13;11.30;99.90
48860;DHT22;34679;51.436;-2.518;2023-12-28T01:43:43;11.20;99.90
48860;DHT22;34679;51.436;-2.518;2023-12-28T01:46:19;11.10;99.90
48860;DHT22;34679;51.436;-2.518;2023-12-28T01:48:48;11.00;99.90
48860;DHT22;34679;51.436;-2.518;2023-12-28T01:51:15;11.00;99.90
48860;DHT22;34679;51.436;-2.518;2023-12-28T01:53:41;11.00;99.90
48860;DHT22;34679;51.436;-2.518;2023-12-28T01:56:07;11.00;99.90
48860;DHT22;34679;51.436;-2.518;2023-12-28T01:58:35;11.00;99.90
48860;DHT22;34679;51.436;-2.518;2023-12-28T02:01:01;11.10;99.90
48860;DHT22;34679;51.436;-2.518;2023-12-28T02:03:28;11.10;99.90
48860;DHT22;34679;51.436;-2.518;2023-12-28T02:05:54;11.10;99.90
48860;DHT22;34679;51.436;-2.518;2023-12-28T02:08:19;11.10;99.90
48860;DHT22;34679;51.436;-2.518;2023-12-28T02:10:45;11.10;99.90
48860;DHT22;34679;51.436;-2.518;2023-12-28T02:13:11;11.10;99.90
48860;DHT22;34679;51.436;-2.518;2023-12-28T02:15:37;11.10;99.90
48860;DHT22;34679;51.436;-2.518;2023-12-28T02:18:07;11.10;99.90
48860;DHT22;34679;51.436;-2.518;2023-12-28T02:20:35;11.00;99.90
48860;DHT22;34679;51.436;-2.518;2023-12-28T02:23:01;10.90;99.90
48860;DHT22;34679;51.436;-2.518;2023-12-28T02:25:27;10.90;99.90
48860;DHT22;34679;51.436;-2.518;2023-12-28T02:27:53;10.80;99.90
48860;DHT22;34679;51.436;-2.518;2023-12-28T02:30:21;10.80;99.90
48860;DHT22;34679;51.436;-2.518;2023-12-28T02:33:43;10.80;99.90
48860;DHT22;34679;51.436;-2.518;2023-12-28T02:35:46;10.70;99.90
48860;DHT22;34679;51.436;-2.518;2023-12-28T02:38:14;10.70;99.90
48860;DHT22;34679;51.436;-2.518;2023-12-28T02:40:42;10.60;99.90
48860;DHT22;34679;51.436;-2.518;2023-12-28T02:43:10;10.50;99.90
48860;DHT22;34679;51.436;-2.518;2023-12-28T02:45:37;10.50;99.90
48860;DHT22;34679;51.436;-2.518;2023-12-28T02:48:04;10.50;99.90
48860;DHT22;34679;51.436;-2.518;2023-12-28T02:50:30;10.50;99.90
48860;DHT22;34679;51.436;-2.518;2023-12-28T02:52:56;10.60;99.90
48860;DHT22;34679;51.436;-2.518;2023-12-28T02:55:22;10.60;99.90
48860;DHT22;34679;51.436;-2.518;2023-12-28T02:57:51;10.60;99.90
48860;DHT22;34679;51.436;-2.518;2023-12-28T03:00:17;10.60;99.90
48860;DHT22;34679;51.436;-2.518;2023-12-28T03:02:43;10.60;99.90
48860;DHT22;34679;51.436;-2.518;2023-12-28T03:05:09;10.50;99.90
48860;DHT22;34679;51.436;-2.518;2023-12-28T03:07:35;10.50;99.90
48860;DHT22;34679;51.436;-2.518;2023-12-28T03:10:03;10.50;99.90
48860;DHT22;34679;51.436;-2.518;2023-12-28T03:12:29;10.50;99.90
48860;DHT22;34679;51.436;-2.518;2023-12-28T03:14:55;10.60;99.90
48860;DHT22;34679;51.436;-2.518;2023-12-28T03:17:21;10.60;99.90
48860;DHT22;34679;51.436;-2.518;2023-12-28T03:19:47;10.60;99.90
48860;DHT22;34679;51.436;-2.518;2023-12-28T03:22:12;10.60;99.90
48860;DHT22;34679;51.436;-2.518;2023-12-28T03:24:38;10.60;99.90
48860;DHT22;34679;51.436;-2.518;2023-12-28T03:27:04;10.60;99.90
48860;DHT22;34679;51.436;-2.518;2023-12-28T03:29:30;10.60;99.90
48860;DHT22;34679;51.436;-2.518;2023-12-28T03:31:56;10.50;99.90
48860;DHT22;34679;51.436;-2.518;2023-12-28T03:34:22;10.70;99.90
48860;DHT22;34679;51.436;-2.518;2023-12-28T03:36:49;10.70;99.90
48860;DHT22;34679;51.436;-2.518;2023-12-28T03:39:14;10.70;99.90
48860;DHT22;34679;51.436;-2.518;2023-12-28T03:41:40;10.80;99.90
48860;DHT22;34679;51.436;-2.518;2023-12-28T03:44:06;10.70;99.90
48860;DHT22;34679;51.436;-2.518;2023-12-28T03:46:31;10.80;99.90
48860;DHT22;34679;51.436;-2.518;2023-12-28T03:48:57;10.80;99.90
48860;DHT22;34679;51.436;-2.518;2023-12-28T03:51:23;10.90;99.90
48860;DHT22;34679;51.436;-2.518;2023-12-28T03:53:49;10.90;99.90
48860;DHT22;34679;51.436;-2.518;2023-12-28T03:56:22;10.90;99.90
48860;DHT22;34679;51.436;-2.518;2023-12-28T03:58:48;10.90;99.90
48860;DHT22;34679;51.436;-2.518;2023-12-28T04:01:13;10.90;99.90
48860;DHT22;34679;51.436;-2.518;2023-12-28T04:03:39;10.90;99.90
48860;DHT22;34679;51.436;-2.518;2023-12-28T04:06:05;11.00;99.90
48860;DHT22;34679;51.436;-2.518;2023-12-28T04:08:31;11.10;99.90
48860;DHT22;34679;51.436;-2.518;2023-12-28T04:10:56;11.20;99.90
48860;DHT22;34679;51.436;-2.518;2023-12-28T04:13:22;11.20;99.90
48860;DHT22;34679;51.436;-2.518;2023-12-28T04:15:48;11.20;99.90
48860;DHT22;34679;51.436;-2.518;2023-12-28T04:18:13;11.20;99.90
48860;DHT22;34679;51.436;-2.518;2023-12-28T04:20:41;11.30;99.90
48860;DHT22;34679;51.436;-2.518;2023-12-28T04:23:07;11.30;99.90
48860;DHT22;34679;51.436;-2.518;2023-12-28T04:25:33;11.30;99.90
48860;DHT22;34679;51.436;-2.518;2023-12-28T04:27:58;11.30;99.90
48860;DHT22;34679;51.436;-2.518;2023-12-28T04:30:24;11.30;99.90
48860;DHT22;34679;51.436;-2.518;2023-12-28T04:32:50;11.30;99.90
48860;DHT22;34679;51.436;-2.518;2023-12-28T04:35:16;11.40;99.90
48860;DHT22;34679;51.436;-2.518;2023-12-28T04:37:41;11.40;99.90
48860;DHT22;34679;51.436;-2.518;2023-12-28T04:40:07;11.40;99.90
48860;DHT22;34679;51.436;-2.518;2023-12-28T04:42:33;11.40;99.90
48860;DHT22;34679;51.436;-2.518;2023-12-28T04:44:59;11.40;99.90
48860;DHT22;34679;51.436;-2.518;2023-12-28T04:47:24;11.30;99.90
48860;DHT22;34679;51.436;-2.518;2023-12-28T04:49:50;11.40;99.90
48860;DHT22;34679;51.436;-2.518;2023-12-28T04:52:16;11.40;99.90
48860;DHT22;34679;51.436;-2.518;2023-12-28T04:54:41;11.40;99.90
48860;DHT22;34679;51.436;-2.518;2023-12-28T04:57:07;11.40;99.90
48860;DHT22;34679;51.436;-2.518;2023-12-28T04:59:39;11.50;99.90
48860;DHT22;34679;51.436;-2.518;2023-12-28T05:02:05;11.50;99.90
48860;DHT22;34679;51.436;-2.518;2023-12-28T05:04:31;11.50;99.90
48860;DHT22;34679;51.436;-2.518;2023-12-28T05:06:59;11.60;99.90
48860;DHT22;34679;51.436;-2.518;2023-12-28T05:09:25;11.60;99.90
48860;DHT22;34679;51.436;-2.518;2023-12-28T05:11:50;11.60;99.90
48860;DHT22;34679;51.436;-2.518;2023-12-28T05:14:16;11.60;99.90
48860;DHT22;34679;51.436;-2.518;2023-12-28T05:16:41;11.50;99.90
48860;DHT22;34679;51.436;-2.518;2023-12-28T05:19:08;11.40;99.90
48860;DHT22;34679;51.436;-2.518;2023-12-28T05:21:34;11.30;99.90
48860;DHT22;34679;51.436;-2.518;2023-12-28T05:24:00;11.20;99.90
48860;DHT22;34679;51.436;-2.518;2023-12-28T05:26:25;11.10;99.90
48860;DHT22;34679;51.436;-2.518;2023-12-28T05:28:52;11.00;99.90
48860;DHT22;34679;51.436;-2.518;2023-12-28T05:31:18;11.00;99.90
48860;DHT22;34679;51.436;-2.518;2023-12-28T05:33:44;11.00;99.90
48860;DHT22;34679;51.436;-2.518;2023-12-28T05:36:09;10.90;99.90
48860;DHT22;34679;51.436;-2.518;2023-12-28T05:38:35;10.80;99.90
48860;DHT22;34679;51.436;-2.518;2023-12-28T05:41:01;10.80;99.90
48860;DHT22;34679;51.436;-2.518;2023-12-28T05:43:26;10.80;99.90
48860;DHT22;34679;51.436;-2.518;2023-12-28T05:45:52;10.80;99.90
48860;DHT22;34679;51.436;-2.518;2023-12-28T05:48:18;10.80;99.90
48860;DHT22;34679;51.436;-2.518;2023-12-28T05:50:43;10.80;99.90
48860;DHT22;34679;51.436;-2.518;2023-12-28T05:53:09;10.80;99.90
48860;DHT22;34679;51.436;-2.518;2023-12-28T05:55:40;10.90;99.90
48860;DHT22;34679;51.436;-2.518;2023-12-28T05:58:06;10.90;99.90
48860;DHT22;34679;51.436;-2.518;2023-12-28T06:00:31;10.90;99.90
48860;DHT22;34679;51.436;-2.518;2023-12-28T06:02:57;11.00;99.90
48860;DHT22;34679;51.436;-2.518;2023-12-28T06:05:23;11.00;99.90
48860;DHT22;34679;51.436;-2.518;2023-12-28T06:07:49;11.00;99.90
48860;DHT22;34679;51.436;-2.518;2023-12-28T06:10:14;11.00;99.90
48860;DHT22;34679;51.436;-2.518;2023-12-28T06:12:40;11.00;99.90
48860;DHT22;34679;51.436;-2.518;2023-12-28T06:15:06;11.00;99.90
48860;DHT22;34679;51.436;-2.518;2023-12-28T06:17:32;11.00;99.90
48860;DHT22;34679;51.436;-2.518;2023-12-28T06:19:57;11.00;99.90
48860;DHT22;34679;51.436;-2.518;2023-12-28T06:22:23;10.90;99.90
48860;DHT22;34679;51.436;-2.518;2023-12-28T06:24:53;10.90;99.90
48860;DHT22;34679;51.436;-2.518;2023-12-28T06:27:19;10.80;99.90
48860;DHT22;34679;51.436;-2.518;2023-12-28T06:29:44;10.80;99.90
48860;DHT22;34679;51.436;-2.518;2023-12-28T06:32:10;10.70;99.90
48860;DHT22;34679;51.436;-2.518;2023-12-28T06:34:36;10.70;99.90
48860;DHT22;34679;51.436;-2.518;2023-12-28T06:37:02;10.70;99.90
48860;DHT22;34679;51.436;-2.518;2023-12-28T06:39:27;10.60;99.90
48860;DHT22;34679;51.436;-2.518;2023-12-28T06:41:53;10.50;99.90
48860;DHT22;34679;51.436;-2.518;2023-12-28T06:44:19;10.50;99.90
48860;DHT22;34679;51.436;-2.518;2023-12-28T06:46:44;10.50;99.90
48860;DHT22;34679;51.436;-2.518;2023-12-28T06:49:10;10.50;99.90
48860;DHT22;34679;51.436;-2.518;2023-12-28T06:51:36;10.50;99.90
48860;DHT22;34679;51.436;-2.518;2023-12-28T06:54:01;10.60;99.90
48860;DHT22;34679;51.436;-2.518;2023-12-28T06:56:27;10.60;99.90
48860;DHT22;34679;51.436;-2.518;2023-12-28T06:58:53;10.70;99.90
48860;DHT22;34679;51.436;-2.518;2023-12-28T07:01:19;10.60;99.90
48860;DHT22;34679;51.436;-2.518;2023-12-28T07:03:45;10.60;99.90
48860;DHT22;34679;51.436;-2.518;2023-12-28T07:06:10;10.60;99.90
48860;DHT22;34679;51.436;-2.518;2023-12-28T07:08:36;10.70;99.90
48860;DHT22;34679;51.436;-2.518;2023-12-28T07:11:02;10.70;99.90
48860;DHT22;34679;51.436;-2.518;2023-12-28T07:13:28;10.70;99.90
48860;DHT22;34679;51.436;-2.518;2023-12-28T07:15:54;10.70;99.90
48860;DHT22;34679;51.436;-2.518;2023-12-28T07:18:20;10.70;99.90
48860;DHT22;34679;51.436;-2.518;2023-12-28T07:20:46;10.70;99.90
48860;DHT22;34679;51.436;-2.518;2023-12-28T07:23:11;10.70;99.90
48860;DHT22;34679;51.436;-2.518;2023-12-28T07:25:37;10.70;99.90
48860;DHT22;34679;51.436;-2.518;2023-12-28T07:28:03;10.70;99.90
48860;DHT22;34679;51.436;-2.518;2023-12-28T07:30:29;10.70;99.90
48860;DHT22;34679;51.436;-2.518;2023-12-28T07:32:55;10.70;99.90
48860;DHT22;34679;51.436;-2.518;2023-12-28T07:35:20;10.70;99.90
48860;DHT22;34679;51.436;-2.518;2023-12-28T07:37:46;10.70;99.90
48860;DHT22;34679;51.436;-2.518;2023-12-28T07:40:12;10.80;99.90
48860;DHT22;34679;51.436;-2.518;2023-12-28T07:42:38;10.80;99.90
48860;DHT22;34679;51.436;-2.518;2023-12-28T07:45:06;10.80;99.90
48860;DHT22;34679;51.436;-2.518;2023-12-28T07:47:32;10.80;99.90
48860;DHT22;34679;51.436;-2.518;2023-12-28T07:49:59;10.80;99.90
48860;DHT22;34679;51.436;-2.518;2023-12-28T07:52:25;10.90;99.90
48860;DHT22;34679;51.436;-2.518;2023-12-28T07:54:50;11.00;99.90
48860;DHT22;34679;51.436;-2.518;2023-12-28T07:57:16;10.90;99.90
48860;DHT22;34679;51.436;-2.518;2023-12-28T07:59:42;10.90;99.90
48860;DHT22;34679;51.436;-2.518;2023-12-28T08:02:07;10.90;99.90
48860;DHT22;34679;51.436;-2.518;2023-12-28T08:04:33;10.90;99.90
48860;DHT22;34679;51.436;-2.518;2023-12-28T08:06:59;10.90;99.90
48860;DHT22;34679;51.436;-2.518;2023-12-28T08:09:25;10.90;99.90
48860;DHT22;34679;51.436;-2.518;2023-12-28T08:11:50;10.90;99.90
48860;DHT22;34679;51.436;-2.518;2023-12-28T08:14:16;10.80;99.90
48860;DHT22;34679;51.436;-2.518;2023-12-28T08:16:42;10.80;99.90
48860;DHT22;34679;51.436;-2.518;2023-12-28T08:19:07;10.80;99.90
48860;DHT22;34679;51.436;-2.518;2023-12-28T08:21:33;10.80;99.90
48860;DHT22;34679;51.436;-2.518;2023-12-28T08:23:59;10.70;99.90
48860;DHT22;34679;51.436;-2.518;2023-12-28T08:26:24;10.70;99.90
48860;DHT22;34679;51.436;-2.518;2023-12-28T08:28:50;10.70;99.90
48860;DHT22;34679;51.436;-2.518;2023-12-28T08:31:16;10.70;99.90
48860;DHT22;34679;51.436;-2.518;2023-12-28T08:33:41;10.80;99.90
48860;DHT22;34679;51.436;-2.518;2023-12-28T08:36:07;10.80;99.90
48860;DHT22;34679;51.436;-2.518;2023-12-28T08:38:33;10.80;99.90
48860;DHT22;34679;51.436;-2.518;2023-12-28T08:40:59;10.80;99.90
48860;DHT22;34679;51.436;-2.518;2023-12-28T08:43:25;10.90;99.90
48860;DHT22;34679;51.436;-2.518;2023-12-28T08:45:50;10.80;99.90
48860;DHT22;34679;51.436;-2.518;2023-12-28T08:48:16;10.80;99.90
48860;DHT22;34679;51.436;-2.518;2023-12-28T08:50:42;10.80;99.90
48860;DHT22;34679;51.436;-2.518;2023-12-28T08:53:07;10.80;99.90
48860;DHT22;34679;51.436;-2.518;2023-12-28T08:55:33;10.80;99.90
48860;DHT22;34679;51.436;-2.518;2023-12-28T08:58:01;10.80;99.90
48860;DHT22;34679;51.436;-2.518;2023-12-28T09:00:27;10.90;99.90
48860;DHT22;34679;51.436;-2.518;2023-12-28T09:02:53;10.90;99.90
48860;DHT22;34679;51.436;-2.518;2023-12-28T09:05:19;10.90;99.90
48860;DHT22;34679;51.436;-2.518;2023-12-28T09:07:44;10.90;99.90
48860;DHT22;34679;51.436;-2.518;2023-12-28T09:10:11;11.00;99.90
48860;DHT22;34679;51.436;-2.518;2023-12-28T09:12:37;11.00;99.90
48860;DHT22;34679;51.436;-2.518;2023-12-28T09:15:06;11.10;99.90
48860;DHT22;34679;51.436;-2.518;2023-12-28T09:17:32;11.20;99.90
48860;DHT22;34679;51.436;-2.518;2023-12-28T09:19:58;11.20;99.90
48860;DHT22;34679;51.436;-2.518;2023-12-28T09:22:24;11.30;99.90
48860;DHT22;34679;51.436;-2.518;2023-12-28T09:24:50;11.40;99.90
48860;DHT22;34679;51.436;-2.518;2023-12-28T09:27:16;11.40;99.90
48860;DHT22;34679;51.436;-2.518;2023-12-28T09:29:42;11.40;99.90
48860;DHT22;34679;51.436;-2.518;2023-12-28T09:32:08;11.50;99.90
48860;DHT22;34679;51.436;-2.518;2023-12-28T09:34:33;11.50;99.90
48860;DHT22;34679;51.436;-2.518;2023-12-28T09:36:59;11.60;99.90
48860;DHT22;34679;51.436;-2.518;2023-12-28T09:39:25;11.50;99.90
48860;DHT22;34679;51.436;-2.518;2023-12-28T09:41:58;11.60;99.90
48860;DHT22;34679;51.436;-2.518;2023-12-28T09:44:26;11.60;99.90
48860;DHT22;34679;51.436;-2.518;2023-12-28T09:46:53;11.60;99.90
48860;DHT22;34679;51.436;-2.518;2023-12-28T09:49:21;11.60;99.90
48860;DHT22;34679;51.436;-2.518;2023-12-28T09:51:47;11.60;99.90
48860;DHT22;34679;51.436;-2.518;2023-12-28T09:54:13;11.60;99.90
48860;DHT22;34679;51.436;-2.518;2023-12-28T09:56:40;11.50;99.90
48860;DHT22;34679;51.436;-2.518;2023-12-28T09:59:06;11.50;99.90
48860;DHT22;34679;51.436;-2.518;2023-12-28T10:01:35;11.60;99.90
48860;DHT22;34679;51.436;-2.518;2023-12-28T10:04:02;11.70;99.90
48860;DHT22;34679;51.436;-2.518;2023-12-28T10:06:30;11.60;99.90
48860;DHT22;34679;51.436;-2.518;2023-12-28T10:08:56;11.70;99.90
48860;DHT22;34679;51.436;-2.518;2023-12-28T10:11:24;11.70;99.90
48860;DHT22;34679;51.436;-2.518;2023-12-28T10:13:53;11.70;99.90
48860;DHT22;34679;51.436;-2.518;2023-12-28T10:16:19;11.70;99.90
48860;DHT22;34679;51.436;-2.518;2023-12-28T10:18:45;11.70;99.90
48860;DHT22;34679;51.436;-2.518;2023-12-28T10:21:11;11.80;99.90
48860;DHT22;34679;51.436;-2.518;2023-12-28T10:23:38;11.80;99.90
48860;DHT22;34679;51.436;-2.518;2023-12-28T10:26:04;11.80;99.90
48860;DHT22;34679;51.436;-2.518;2023-12-28T10:28:40;11.80;99.90
48860;DHT22;34679;51.436;-2.518;2023-12-28T10:31:06;11.80;99.90
48860;DHT22;34679;51.436;-2.518;2023-12-28T10:33:36;11.80;99.90
48860;DHT22;34679;51.436;-2.518;2023-12-28T10:36:07;11.90;99.90
48860;DHT22;34679;51.436;-2.518;2023-12-28T10:38:35;12.00;99.90
48860;DHT22;34679;51.436;-2.518;2023-12-28T10:41:08;11.90;99.90
48860;DHT22;34679;51.436;-2.518;2023-12-28T10:44:03;12.00;99.90
48860;DHT22;34679;51.436;-2.518;2023-12-28T10:46:31;12.10;99.90
48860;DHT22;34679;51.436;-2.518;2023-12-28T10:49:19;12.20;99.90
48860;DHT22;34679;51.436;-2.518;2023-12-28T10:51:51;12.20;99.90
48860;DHT22;34679;51.436;-2.518;2023-12-28T10:54:41;12.20;99.90
48860;DHT22;34679;51.436;-2.518;2023-12-28T10:57:30;12.20;99.90
48860;DHT22;34679;51.436;-2.518;2023-12-28T11:00:09;12.20;99.90
48860;DHT22;34679;51.436;-2.518;2023-12-28T11:02:44;12.20;99.90
48860;DHT22;34679;51.436;-2.518;2023-12-28T11:05:12;12.20;99.90
48860;DHT22;34679;51.436;-2.518;2023-12-28T11:07:38;12.30;99.90
48860;DHT22;34679;51.436;-2.518;2023-12-28T11:10:06;12.30;99.90
48860;DHT22;34679;51.436;-2.518;2023-12-28T11:12:33;12.40;99.90
48860;DHT22;34679;51.436;-2.518;2023-12-28T11:14:59;12.40;99.90
48860;DHT22;34679;51.436;-2.518;2023-12-28T11:17:27;12.40;99.90
48860;DHT22;34679;51.436;-2.518;2023-12-28T11:19:56;12.40;99.90
48860;DHT22;34679;51.436;-2.518;2023-12-28T11:22:22;12.40;99.90
48860;DHT22;34679;51.436;-2.518;2023-12-28T11:24:49;12.50;99.90
48860;DHT22;34679;51.436;-2.518;2023-12-28T11:27:18;12.50;99.90
48860;DHT22;34679;51.436;-2.518;2023-12-28T11:29:44;12.40;99.90
48860;DHT22;34679;51.436;-2.518;2023-12-28T11:32:10;12.40;99.90
48860;DHT22;34679;51.436;-2.518;2023-12-28T11:34:36;12.40;99.90
48860;DHT22;34679;51.436;-2.518;2023-12-28T11:37:22;12.40;99.90
48860;DHT22;34679;51.436;-2.518;2023-12-28T11:39:49;12.40;99.90
48860;DHT22;34679;51.436;-2.518;2023-12-28T11:42:19;12.40;99.90
48860;DHT22;34679;51.436;-2.518;2023-12-28T11:44:45;12.40;99.90
48860;DHT22;34679;51.436;-2.518;2023-12-28T11:47:30;12.40;99.90
48860;DHT22;34679;51.436;-2.518;2023-12-28T11:50:06;12.40;99.90
48860;DHT22;34679;51.436;-2.518;2023-12-28T11:52:32;12.40;99.90
48860;DHT22;34679;51.436;-2.518;2023-12-28T11:54:59;12.40;99.90
48860;DHT22;34679;51.436;-2.518;2023-12-28T11:57:26;12.40;99.90
48860;DHT22;34679;51.436;-2.518;2023-12-28T12:00:00;12.40;99.90
48860;DHT22;34679;51.436;-2.518;2023-12-28T12:02:26;12.50;99.90
48860;DHT22;34679;51.436;-2.518;2023-12-28T12:04:56;12.50;99.90
48860;DHT22;34679;51.436;-2.518;2023-12-28T12:07:27;12.50;99.90
48860;DHT22;34679;51.436;-2.518;2023-12-28T12:09:59;12.50;99.90
48860;DHT22;34679;51.436;-2.518;2023-12-28T12:12:26;12.50;99.90
48860;DHT22;34679;51.436;-2.518;2023-12-28T12:14:51;12.50;99.90
48860;DHT22;34679;51.436;-2.518;2023-12-28T12:17:18;12.50;99.90
48860;DHT22;34679;51.436;-2.518;2023-12-28T12:19:44;12.60;99.90
48860;DHT22;34679;51.436;-2.518;2023-12-28T12:22:13;12.60;99.90
48860;DHT22;34679;51.436;-2.518;2023-12-28T12:24:41;12.60;99.90
48860;DHT22;34679;51.436;-2.518;2023-12-28T12:27:08;12.60;99.90
48860;DHT22;34679;51.436;-2.518;2023-12-28T12:29:34;12.60;99.90
48860;DHT22;34679;51.436;-2.518;2023-12-28T12:32:01;12.60;99.90
48860;DHT22;34679;51.436;-2.518;2023-12-28T12:34:28;12.50;99.90
48860;DHT22;34679;51.436;-2.518;2023-12-28T12:36:54;12.60;99.90
48860;DHT22;34679;51.436;-2.518;2023-12-28T12:39:22;12.60;99.90
48860;DHT22;34679;51.436;-2.518;2023-12-28T12:41:49;12.60;99.90
48860;DHT22;34679;51.436;-2.518;2023-12-28T12:44:14;12.70;99.90
48860;DHT22;34679;51.436;-2.518;2023-12-28T12:46:42;12.70;99.90
48860;DHT22;34679;51.436;-2.518;2023-12-28T12:49:08;12.70;99.90
48860;DHT22;34679;51.436;-2.518;2023-12-28T12:51:33;12.70;99.90
48860;DHT22;34679;51.436;-2.518;2023-12-28T12:54:00;12.70;99.90
48860;DHT22;34679;51.436;-2.518;2023-12-28T12:56:32;12.70;99.90
48860;DHT22;34679;51.436;-2.518;2023-12-28T12:58:58;12.70;99.90
48860;DHT22;34679;51.436;-2.518;2023-12-28T13:01:24;12.70;99.90
48860;DHT22;34679;51.436;-2.518;2023-12-28T13:03:50;12.70;99.90
48860;DHT22;34679;51.436;-2.518;2023-12-28T13:06:16;12.80;99.90
48860;DHT22;34679;51.436;-2.518;2023-12-28T13:08:47;12.80;99.90
48860;DHT22;34679;51.436;-2.518;2023-12-28T13:11:13;12.80;99.90
48860;DHT22;34679;51.436;-2.518;2023-12-28T13:13:39;12.90;99.90
48860;DHT22;34679;51.436;-2.518;2023-12-28T13:16:04;12.90;99.90
48860;DHT22;34679;51.436;-2.518;2023-12-28T13:18:30;13.00;99.90
48860;DHT22;34679;51.436;-2.518;2023-12-28T13:20:57;13.00;99.90
48860;DHT22;34679;51.436;-2.518;2023-12-28T13:23:23;12.90;99.90
48860;DHT22;34679;51.436;-2.518;2023-12-28T13:25:49;12.90;99.90
48860;DHT22;34679;51.436;-2.518;2023-12-28T13:28:14;12.90;99.90
48860;DHT22;34679;51.436;-2.518;2023-12-28T13:30:40;13.00;99.90
48860;DHT22;34679;51.436;-2.518;2023-12-28T13:33:06;13.00;99.90
48860;DHT22;34679;51.436;-2.518;2023-12-28T13:35:32;13.10;99.90
48860;DHT22;34679;51.436;-2.518;2023-12-28T13:38:00;13.10;99.90
48860;DHT22;34679;51.436;-2.518;2023-12-28T13:40:29;13.20;99.90
48860;DHT22;34679;51.436;-2.518;2023-12-28T13:42:56;13.20;99.90
48860;DHT22;34679;51.436;-2.518;2023-12-28T13:45:22;13.20;99.90
48860;DHT22;34679;51.436;-2.518;2023-12-28T13:47:48;13.20;99.90
48860;DHT22;34679;51.436;-2.518;2023-12-28T13:50:13;13.20;99.90
48860;DHT22;34679;51.436;-2.518;2023-12-28T13:52:39;13.10;99.90
48860;DHT22;34679;51.436;-2.518;2023-12-28T13:55:05;12.90;99.90
48860;DHT22;34679;51.436;-2.518;2023-12-28T13:57:30;12.70;99.90
48860;DHT22;34679;51.436;-2.518;2023-12-28T13:59:56;12.70;99.90
48860;DHT22;34679;51.436;-2.518;2023-12-28T14:02:26;12.50;99.90
48860;DHT22;34679;51.436;-2.518;2023-12-28T14:04:51;12.50;99.90
48860;DHT22;34679;51.436;-2.518;2023-12-28T14:07:19;12.50;99.90
48860;DHT22;34679;51.436;-2.518;2023-12-28T14:09:44;12.40;99.90
48860;DHT22;34679;51.436;-2.518;2023-12-28T14:12:10;12.40;99.90
48860;DHT22;34679;51.436;-2.518;2023-12-28T14:14:36;12.50;99.90
48860;DHT22;34679;51.436;-2.518;2023-12-28T14:17:01;12.50;99.90
48860;DHT22;34679;51.436;-2.518;2023-12-28T14:19:29;12.50;99.90
48860;DHT22;34679;51.436;-2.518;2023-12-28T14:21:55;12.40;99.90
48860;DHT22;34679;51.436;-2.518;2023-12-28T14:24:21;12.30;99.90
48860;DHT22;34679;51.436;-2.518;2023-12-28T14:26:48;12.30;99.90
48860;DHT22;34679;51.436;-2.518;2023-12-28T14:29:15;12.20;99.90
48860;DHT22;34679;51.436;-2.518;2023-12-28T14:31:41;12.20;99.90
48860;DHT22;34679;51.436;-2.518;2023-12-28T14:34:09;12.20;99.90
48860;DHT22;34679;51.436;-2.518;2023-12-28T14:36:36;12.30;99.90
48860;DHT22;34679;51.436;-2.518;2023-12-28T14:39:06;12.40;99.90
48860;DHT22;34679;51.436;-2.518;2023-12-28T14:41:36;12.40;99.90
48860;DHT22;34679;51.436;-2.518;2023-12-28T14:44:03;12.30;99.90
48860;DHT22;34679;51.436;-2.518;2023-12-28T14:46:29;12.30;99.90
48860;DHT22;34679;51.436;-2.518;2023-12-28T14:48:55;12.20;99.90
48860;DHT22;34679;51.436;-2.518;2023-12-28T14:51:21;12.10;99.90
48860;DHT22;34679;51.436;-2.518;2023-12-28T14:53:47;12.00;99.90
48860;DHT22;34679;51.436;-2.518;2023-12-28T14:56:13;11.90;99.90
48860;DHT22;34679;51.436;-2.518;2023-12-28T14:58:39;11.80;99.90
48860;DHT22;34679;51.436;-2.518;2023-12-28T15:01:06;11.70;99.90
48860;DHT22;34679;51.436;-2.518;2023-12-28T15:03:31;11.70;99.90
48860;DHT22;34679;51.436;-2.518;2023-12-28T15:05:57;11.60;99.90
48860;DHT22;34679;51.436;-2.518;2023-12-28T15:08:26;11.60;99.90
48860;DHT22;34679;51.436;-2.518;2023-12-28T15:10:52;11.50;99.90
48860;DHT22;34679;51.436;-2.518;2023-12-28T15:13:18;11.40;99.90